createdAt,value
2019-01-15T00:00:37.854Z,18.73
2019-01-15T00:01:37.883Z,18.72
2019-01-15T00:02:37.717Z,18.7
2019-01-15T00:03:38.079Z,18.72
2019-01-15T00:04:38.458Z,18.7
2019-01-15T00:05:37.730Z,18.72
2019-01-15T00:06:37.512Z,18.7
2019-01-15T00:07:38.119Z,18.7
2019-01-15T00:08:38.377Z,18.7
2019-01-15T00:09:37.956Z,18.7
2019-01-15T00:10:37.825Z,18.68
2019-01-15T00:11:37.765Z,18.68
2019-01-15T00:12:38.602Z,18.69
2019-01-15T00:13:37.566Z,18.69
2019-01-15T00:14:37.733Z,18.68
2019-01-15T00:15:37.613Z,18.68
2019-01-15T00:16:38.104Z,18.66
2019-01-15T00:17:37.916Z,18.67
2019-01-15T00:18:39.517Z,18.66
2019-01-15T00:19:38.018Z,18.66
2019-01-15T00:20:37.481Z,18.67
2019-01-15T00:21:37.637Z,18.65
2019-01-15T00:22:37.870Z,18.66
2019-01-15T00:23:37.828Z,18.66
2019-01-15T00:24:37.622Z,18.63
2019-01-15T00:25:37.629Z,18.64
2019-01-15T00:26:38.311Z,18.63
2019-01-15T00:27:37.775Z,18.63
2019-01-15T00:28:37.639Z,18.59
2019-01-15T00:29:37.746Z,18.62
2019-01-15T00:30:38.007Z,18.61
2019-01-15T00:31:38.048Z,18.61
2019-01-15T00:32:37.582Z,18.61
2019-01-15T00:33:37.616Z,18.58
2019-01-15T00:34:37.914Z,18.58
2019-01-15T00:35:37.875Z,18.57
2019-01-15T00:36:37.911Z,18.58
2019-01-15T00:37:37.901Z,18.57
2019-01-15T00:38:37.878Z,18.57
2019-01-15T00:39:37.612Z,18.56
2019-01-15T00:40:38.069Z,18.55
2019-01-15T00:41:37.846Z,18.54
2019-01-15T00:42:38.612Z,18.56
2019-01-15T00:43:38.524Z,18.56
2019-01-15T00:44:38.004Z,18.51
2019-01-15T00:45:38.117Z,18.53
2019-01-15T00:46:37.542Z,18.54
2019-01-15T00:47:37.558Z,18.54
2019-01-15T00:48:37.676Z,18.53
2019-01-15T00:49:37.819Z,18.51
2019-01-15T00:50:38.102Z,18.53
2019-01-15T00:51:37.644Z,18.51
2019-01-15T00:52:37.746Z,18.5
2019-01-15T00:53:37.696Z,18.51
2019-01-15T00:54:37.672Z,18.51
2019-01-15T00:55:37.649Z,18.52
2019-01-15T00:56:37.726Z,18.49
2019-01-15T00:57:37.834Z,18.49
2019-01-15T00:58:37.683Z,18.49
2019-01-15T00:59:37.665Z,18.47
2019-01-15T01:00:37.759Z,18.48
2019-01-15T01:01:37.653Z,18.47
2019-01-15T01:02:37.748Z,18.48
2019-01-15T01:03:37.746Z,18.47
2019-01-15T01:04:38.124Z,18.46
2019-01-15T01:05:37.981Z,18.44
2019-01-15T01:06:37.998Z,18.47
2019-01-15T01:07:37.943Z,18.44
2019-01-15T01:08:38.067Z,18.43
2019-01-15T01:09:37.614Z,18.44
2019-01-15T01:10:37.567Z,18.43
2019-01-15T01:11:37.610Z,18.43
2019-01-15T01:12:37.606Z,18.42
2019-01-15T01:13:37.762Z,18.42
2019-01-15T01:14:37.916Z,18.42
2019-01-15T01:15:38.321Z,18.42
2019-01-15T01:16:37.954Z,18.41
2019-01-15T01:17:37.702Z,18.41
2019-01-15T01:18:37.839Z,18.44
2019-01-15T01:19:38.230Z,18.42
2019-01-15T01:20:37.689Z,18.42
2019-01-15T01:21:37.892Z,18.4
2019-01-15T01:22:37.818Z,18.42
2019-01-15T01:23:37.611Z,18.39
2019-01-15T01:24:38.178Z,18.4
2019-01-15T01:25:37.996Z,18.4
2019-01-15T01:26:38.025Z,18.37
2019-01-15T01:27:37.981Z,18.38
2019-01-15T01:28:37.727Z,18.36
2019-01-15T01:29:37.869Z,18.38
2019-01-15T01:30:37.564Z,18.36
2019-01-15T01:31:38.138Z,18.36
2019-01-15T01:32:38.237Z,18.33
2019-01-15T01:33:37.916Z,18.38
2019-01-15T01:34:37.962Z,18.33
2019-01-15T01:35:37.934Z,18.37
2019-01-15T01:36:38.073Z,18.34
2019-01-15T01:37:39.366Z,18.36
2019-01-15T01:38:37.794Z,18.35
2019-01-15T01:39:37.759Z,18.35
2019-01-15T01:40:37.774Z,18.35
2019-01-15T01:41:37.899Z,18.33
2019-01-15T01:42:37.747Z,18.34
2019-01-15T01:43:38.090Z,18.32
2019-01-15T01:44:37.694Z,18.33
2019-01-15T01:45:38.074Z,18.32
2019-01-15T01:46:37.951Z,18.32
2019-01-15T01:47:38.014Z,18.29
2019-01-15T01:48:38.135Z,18.3
2019-01-15T01:49:37.909Z,18.32
2019-01-15T01:50:37.765Z,18.32
2019-01-15T01:51:37.932Z,18.3
2019-01-15T01:52:38.315Z,18.27
2019-01-15T01:53:37.875Z,18.28
2019-01-15T01:54:37.878Z,18.3
2019-01-15T01:55:39.442Z,18.27
2019-01-15T01:56:38.390Z,18.29
2019-01-15T01:57:37.762Z,18.27
2019-01-15T01:58:37.942Z,18.27
2019-01-15T01:59:37.862Z,18.28
2019-01-15T02:00:37.893Z,18.27
2019-01-15T02:01:38.189Z,18.27
2019-01-15T02:02:37.468Z,18.26
2019-01-15T02:03:38.252Z,18.24
2019-01-15T02:04:37.630Z,18.25
2019-01-15T02:05:37.525Z,18.23
2019-01-15T02:06:37.879Z,18.23
2019-01-15T02:07:37.604Z,18.25
2019-01-15T02:08:37.966Z,18.24
2019-01-15T02:09:38.016Z,18.24
2019-01-15T02:10:37.888Z,18.24
2019-01-15T02:11:37.614Z,18.22
2019-01-15T02:12:38.054Z,18.22
2019-01-15T02:13:37.621Z,18.22
2019-01-15T02:14:37.804Z,18.22
2019-01-15T02:15:38.094Z,18.23
2019-01-15T02:16:37.606Z,18.23
2019-01-15T02:17:37.952Z,18.21
2019-01-15T02:18:38.033Z,18.18
2019-01-15T02:19:37.497Z,18.19
2019-01-15T02:20:37.579Z,18.19
2019-01-15T02:21:37.760Z,18.2
2019-01-15T02:22:37.605Z,18.19
2019-01-15T02:23:37.684Z,18.21
2019-01-15T02:24:37.742Z,18.19
2019-01-15T02:25:37.895Z,18.18
2019-01-15T02:26:38.229Z,18.18
2019-01-15T02:27:37.502Z,18.18
2019-01-15T02:28:37.921Z,18.17
2019-01-15T02:29:37.733Z,18.15
2019-01-15T02:30:37.592Z,18.18
2019-01-15T02:31:37.891Z,18.18
2019-01-15T02:32:37.952Z,18.17
2019-01-15T02:33:37.657Z,18.15
2019-01-15T02:34:37.980Z,18.14
2019-01-15T02:35:37.741Z,18.15
2019-01-15T02:36:37.994Z,18.11
2019-01-15T02:37:38.407Z,18.14
2019-01-15T02:38:37.648Z,18.14
2019-01-15T02:39:37.773Z,18.12
2019-01-15T02:40:37.836Z,18.13
2019-01-15T02:41:37.754Z,18.12
2019-01-15T02:42:47.509Z,18.12
2019-01-15T02:43:37.635Z,18.13
2019-01-15T02:44:37.640Z,18.11
2019-01-15T02:45:37.881Z,18.11
2019-01-15T02:46:37.673Z,18.13
2019-01-15T02:47:37.736Z,18.13
2019-01-15T02:48:37.978Z,18.12
2019-01-15T02:49:37.613Z,18.12
2019-01-15T02:50:37.788Z,18.1
2019-01-15T02:51:37.758Z,18.11
2019-01-15T02:52:37.700Z,18.08
2019-01-15T02:53:37.838Z,18.09
2019-01-15T02:54:37.804Z,18.09
2019-01-15T02:55:37.692Z,18.07
2019-01-15T02:56:37.722Z,18.07
2019-01-15T02:57:38.141Z,18.08
2019-01-15T02:58:38.498Z,18.08
2019-01-15T02:59:37.531Z,18.08
2019-01-15T03:00:37.948Z,18.07
2019-01-15T03:01:38.665Z,18.08
2019-01-15T03:02:37.569Z,18.07
2019-01-15T03:03:37.633Z,18.08
2019-01-15T03:04:37.781Z,18.06
2019-01-15T03:05:37.773Z,18.07
2019-01-15T03:06:37.643Z,18.05
2019-01-15T03:07:37.773Z,18.04
2019-01-15T03:08:38.380Z,18.05
2019-01-15T03:09:37.835Z,18.04
2019-01-15T03:10:37.416Z,18.04
2019-01-15T03:11:38.050Z,18.04
2019-01-15T03:12:38.122Z,18.04
2019-01-15T03:13:37.402Z,18.02
2019-01-15T03:14:37.805Z,18.02
2019-01-15T03:15:37.637Z,18.04
2019-01-15T03:16:37.857Z,18.02
2019-01-15T03:17:37.627Z,18.03
2019-01-15T03:18:37.625Z,18.02
2019-01-15T03:19:37.905Z,18.02
2019-01-15T03:20:39.547Z,18.03
2019-01-15T03:21:37.962Z,17.99
2019-01-15T03:22:37.684Z,18
2019-01-15T03:23:37.704Z,18
2019-01-15T03:24:37.779Z,18
2019-01-15T03:25:37.631Z,18.02
2019-01-15T03:26:37.812Z,17.99
2019-01-15T03:27:37.757Z,17.98
2019-01-15T03:28:37.602Z,18
2019-01-15T03:29:37.849Z,17.98
2019-01-15T03:30:38.164Z,17.98
2019-01-15T03:31:38.111Z,17.99
2019-01-15T03:32:37.880Z,17.98
2019-01-15T03:33:38.090Z,17.98
2019-01-15T03:34:37.753Z,17.95
2019-01-15T03:35:37.619Z,17.96
2019-01-15T03:36:38.024Z,17.95
2019-01-15T03:37:39.028Z,17.98
2019-01-15T03:38:39.566Z,17.96
2019-01-15T03:39:37.882Z,17.95
2019-01-15T03:40:37.791Z,17.95
2019-01-15T03:41:37.735Z,17.95
2019-01-15T03:42:37.972Z,17.95
2019-01-15T03:43:38.274Z,17.95
2019-01-15T03:44:37.437Z,17.95
2019-01-15T03:45:37.931Z,17.95
2019-01-15T03:46:38.311Z,17.94
2019-01-15T03:47:37.786Z,17.94
2019-01-15T03:48:37.654Z,17.93
2019-01-15T03:49:37.889Z,17.92
2019-01-15T03:50:37.819Z,17.94
2019-01-15T03:51:37.856Z,17.92
2019-01-15T03:52:37.666Z,17.93
2019-01-15T03:53:37.751Z,17.95
2019-01-15T03:54:37.683Z,17.91
2019-01-15T03:55:38.490Z,17.91
2019-01-15T03:56:37.760Z,17.91
2019-01-15T03:57:37.575Z,17.92
2019-01-15T03:58:37.967Z,17.91
2019-01-15T03:59:37.720Z,17.91
2019-01-15T04:00:37.645Z,17.9
2019-01-15T04:01:37.799Z,17.9
2019-01-15T04:02:37.581Z,17.9
2019-01-15T04:03:37.706Z,17.89
2019-01-15T04:04:37.447Z,17.9
2019-01-15T04:05:37.747Z,17.9
2019-01-15T04:06:38.122Z,17.89
2019-01-15T04:07:37.458Z,17.9
2019-01-15T04:08:37.847Z,17.88
2019-01-15T04:09:37.659Z,17.89
2019-01-15T04:10:37.474Z,17.88
2019-01-15T04:11:38.004Z,17.88
2019-01-15T04:12:37.821Z,17.87
2019-01-15T04:13:37.428Z,17.88
2019-01-15T04:14:37.863Z,17.88
2019-01-15T04:15:37.824Z,17.84
2019-01-15T04:16:37.671Z,17.85
2019-01-15T04:17:37.683Z,17.87
2019-01-15T04:18:37.555Z,17.85
2019-01-15T04:19:37.700Z,17.84
2019-01-15T04:20:37.897Z,17.87
2019-01-15T04:21:37.697Z,17.87
2019-01-15T04:22:37.680Z,17.83
2019-01-15T04:23:37.741Z,17.84
2019-01-15T04:24:37.426Z,17.83
2019-01-15T04:25:37.716Z,17.83
2019-01-15T04:26:37.859Z,17.83
2019-01-15T04:27:37.867Z,17.84
2019-01-15T04:28:38.458Z,17.83
2019-01-15T04:29:37.938Z,17.83
2019-01-15T04:30:37.876Z,17.81
2019-01-15T04:31:38.011Z,17.83
2019-01-15T04:32:37.728Z,17.83
2019-01-15T04:33:37.776Z,17.83
2019-01-15T04:34:37.940Z,17.82
2019-01-15T04:35:37.707Z,17.81
2019-01-15T04:36:37.676Z,17.81
2019-01-15T04:37:38.383Z,17.81
2019-01-15T04:38:37.633Z,17.83
2019-01-15T04:39:37.921Z,17.8
2019-01-15T04:40:37.680Z,17.82
2019-01-15T04:41:37.869Z,17.8
2019-01-15T04:42:37.636Z,17.81
2019-01-15T04:43:38.116Z,17.82
2019-01-15T04:44:37.529Z,17.81
2019-01-15T04:45:37.554Z,17.81
2019-01-15T04:46:37.500Z,17.8
2019-01-15T04:47:37.704Z,17.83
2019-01-15T04:48:37.579Z,17.82
2019-01-15T04:49:37.425Z,17.83
2019-01-15T04:50:37.838Z,17.83
2019-01-15T04:51:37.687Z,17.81
2019-01-15T04:52:38.019Z,17.85
2019-01-15T04:53:37.667Z,17.85
2019-01-15T04:54:37.758Z,17.83
2019-01-15T04:55:37.428Z,17.87
2019-01-15T04:56:37.837Z,17.87
2019-01-15T04:57:37.601Z,17.89
2019-01-15T04:58:37.436Z,17.89
2019-01-15T04:59:37.773Z,17.91
2019-01-15T05:00:37.716Z,17.92
2019-01-15T05:01:37.650Z,17.92
2019-01-15T05:02:38.015Z,17.94
2019-01-15T05:03:37.762Z,17.94
2019-01-15T05:04:37.936Z,17.96
2019-01-15T05:05:37.828Z,17.97
2019-01-15T05:06:37.498Z,17.98
2019-01-15T05:07:37.739Z,18
2019-01-15T05:08:38.135Z,17.99
2019-01-15T05:09:37.710Z,18
2019-01-15T05:10:37.937Z,18.03
2019-01-15T05:11:37.642Z,18.05
2019-01-15T05:12:37.483Z,18.05
2019-01-15T05:13:37.550Z,18.05
2019-01-15T05:14:37.663Z,18.05
2019-01-15T05:15:37.513Z,18.08
2019-01-15T05:16:37.826Z,18.09
2019-01-15T05:17:38.940Z,18.12
2019-01-15T05:18:37.636Z,18.12
2019-01-15T05:19:37.663Z,18.13
2019-01-15T05:20:37.758Z,18.14
2019-01-15T05:21:38.511Z,18.17
2019-01-15T05:22:37.741Z,18.19
2019-01-15T05:23:37.850Z,18.21
2019-01-15T05:24:37.878Z,18.23
2019-01-15T05:25:37.891Z,18.26
2019-01-15T05:26:38.006Z,18.27
2019-01-15T05:27:37.814Z,18.29
2019-01-15T05:28:37.695Z,18.28
2019-01-15T05:29:37.413Z,18.29
2019-01-15T05:30:37.810Z,18.32
2019-01-15T05:31:38.130Z,18.34
2019-01-15T05:32:37.673Z,18.34
2019-01-15T05:33:37.850Z,18.35
2019-01-15T05:34:37.939Z,18.37
2019-01-15T05:35:38.484Z,18.39
2019-01-15T05:36:38.012Z,18.39
2019-01-15T05:37:37.677Z,18.43
2019-01-15T05:38:38.037Z,18.42
2019-01-15T05:39:37.793Z,18.44
2019-01-15T05:40:38.062Z,18.47
2019-01-15T05:41:37.542Z,18.48
2019-01-15T05:42:38.549Z,18.49
2019-01-15T05:43:37.387Z,18.47
2019-01-15T05:44:37.878Z,18.51
2019-01-15T05:45:37.856Z,18.52
2019-01-15T05:46:37.720Z,18.52
2019-01-15T05:47:37.590Z,18.54
2019-01-15T05:48:37.656Z,18.56
2019-01-15T05:49:37.914Z,18.57
2019-01-15T05:50:37.801Z,18.58
2019-01-15T05:51:37.805Z,18.58
2019-01-15T05:52:37.745Z,18.59
2019-01-15T05:53:37.600Z,18.61
2019-01-15T05:54:37.666Z,18.65
2019-01-15T05:55:37.482Z,18.65
2019-01-15T05:56:37.756Z,18.67
2019-01-15T05:57:37.810Z,18.65
2019-01-15T05:58:37.980Z,18.69
2019-01-15T05:59:37.759Z,18.69
2019-01-15T06:00:37.463Z,18.68
2019-01-15T06:01:37.766Z,18.7
2019-01-15T06:02:37.677Z,18.72
2019-01-15T06:03:37.379Z,18.72
2019-01-15T06:04:37.691Z,18.74
2019-01-15T06:05:38.005Z,18.74
2019-01-15T06:06:37.759Z,18.77
2019-01-15T06:07:37.878Z,18.77
2019-01-15T06:08:37.945Z,18.78
2019-01-15T06:09:37.832Z,18.81
2019-01-15T06:10:37.772Z,18.81
2019-01-15T06:11:37.662Z,18.84
2019-01-15T06:12:37.891Z,18.83
2019-01-15T06:13:43.127Z,18.84
2019-01-15T06:14:37.595Z,18.85
2019-01-15T06:15:37.395Z,18.85
2019-01-15T06:16:37.927Z,18.86
2019-01-15T06:17:37.836Z,18.87
2019-01-15T06:18:39.419Z,18.89
2019-01-15T06:19:39.540Z,18.89
2019-01-15T06:20:37.705Z,18.91
2019-01-15T06:21:37.632Z,18.91
2019-01-15T06:22:37.420Z,18.93
2019-01-15T06:23:37.850Z,18.93
2019-01-15T06:24:37.669Z,18.94
2019-01-15T06:25:38.000Z,18.95
2019-01-15T06:26:37.649Z,18.97
2019-01-15T06:27:39.443Z,18.98
2019-01-15T06:28:39.259Z,18.96
2019-01-15T06:29:37.521Z,18.98
2019-01-15T06:30:37.635Z,18.97
2019-01-15T06:31:37.848Z,18.89
2019-01-15T06:32:37.733Z,18.83
2019-01-15T06:33:38.634Z,18.74
2019-01-15T06:34:38.910Z,18.67
2019-01-15T06:35:39.450Z,18.59
2019-01-15T06:36:39.093Z,18.53
2019-01-15T06:37:37.720Z,18.46
2019-01-15T06:38:37.728Z,18.38
2019-01-15T06:39:37.949Z,18.36
2019-01-15T06:40:37.481Z,18.33
2019-01-15T06:41:38.055Z,18.35
2019-01-15T06:42:37.927Z,18.35
2019-01-15T06:43:37.706Z,18.36
2019-01-15T06:44:37.773Z,18.37
2019-01-15T06:45:38.359Z,18.38
2019-01-15T06:46:38.045Z,18.41
2019-01-15T06:47:37.489Z,18.41
2019-01-15T06:48:38.013Z,18.44
2019-01-15T06:49:37.465Z,18.47
2019-01-15T06:50:37.527Z,18.49
2019-01-15T06:51:37.672Z,18.49
2019-01-15T06:52:37.652Z,18.53
2019-01-15T06:53:37.872Z,18.54
2019-01-15T06:54:37.612Z,18.55
2019-01-15T06:55:37.327Z,18.57
2019-01-15T06:56:37.652Z,18.57
2019-01-15T06:57:37.940Z,18.59
2019-01-15T06:58:37.799Z,18.61
2019-01-15T06:59:37.483Z,18.62
2019-01-15T07:00:38.546Z,18.62
2019-01-15T07:01:37.759Z,18.65
2019-01-15T07:02:37.989Z,18.65
2019-01-15T07:03:38.317Z,18.67
2019-01-15T07:04:44.370Z,18.66
2019-01-15T07:05:37.572Z,18.68
2019-01-15T07:06:37.394Z,18.68
2019-01-15T07:07:37.913Z,18.68
2019-01-15T07:08:37.653Z,18.7
2019-01-15T07:09:37.718Z,18.69
2019-01-15T07:10:38.531Z,18.69
2019-01-15T07:11:37.862Z,18.69
2019-01-15T07:12:39.348Z,18.7
2019-01-15T07:13:37.690Z,18.7
2019-01-15T07:14:37.601Z,18.7
2019-01-15T07:15:37.732Z,18.72
2019-01-15T07:16:37.856Z,18.73
2019-01-15T07:17:37.727Z,18.72
2019-01-15T07:18:37.776Z,18.72
2019-01-15T07:19:37.786Z,18.72
2019-01-15T07:20:38.201Z,18.74
2019-01-15T07:21:37.700Z,18.73
2019-01-15T07:22:37.557Z,18.73
2019-01-15T07:23:37.717Z,18.73
2019-01-15T07:24:38.029Z,18.73
2019-01-15T07:25:37.591Z,18.74
2019-01-15T07:26:37.670Z,18.73
2019-01-15T07:27:37.793Z,18.73
2019-01-15T07:28:37.901Z,18.73
2019-01-15T07:29:37.836Z,18.76
2019-01-15T07:30:37.643Z,18.73
2019-01-15T07:31:37.472Z,18.73
2019-01-15T07:32:37.433Z,18.73
2019-01-15T07:33:37.383Z,18.73
2019-01-15T07:34:37.766Z,18.73
2019-01-15T07:35:37.418Z,18.73
2019-01-15T07:36:37.488Z,18.73
2019-01-15T07:37:37.771Z,18.74
2019-01-15T07:38:37.422Z,18.74
2019-01-15T07:39:37.713Z,18.73
2019-01-15T07:40:37.667Z,18.74
2019-01-15T07:41:37.732Z,18.76
2019-01-15T07:42:37.515Z,18.73
2019-01-15T07:43:37.661Z,18.76
2019-01-15T07:44:37.709Z,18.72
2019-01-15T07:45:37.971Z,18.74
2019-01-15T07:46:37.317Z,18.74
2019-01-15T07:47:37.762Z,18.72
2019-01-15T07:48:37.799Z,18.73
2019-01-15T07:49:37.445Z,18.76
2019-01-15T07:50:37.886Z,18.72
2019-01-15T07:51:38.710Z,18.73
2019-01-15T07:52:37.636Z,18.76
2019-01-15T07:53:37.761Z,18.73
2019-01-15T07:54:37.590Z,18.73
2019-01-15T07:55:37.976Z,18.76
2019-01-15T07:56:37.927Z,18.72
2019-01-15T07:57:37.795Z,18.79
2019-01-15T07:58:37.585Z,18.76
2019-01-15T07:59:37.593Z,18.74
2019-01-15T08:00:37.777Z,18.76
2019-01-15T08:01:37.507Z,18.76
2019-01-15T08:02:37.759Z,18.74
2019-01-15T08:03:37.467Z,18.73
2019-01-15T08:04:37.859Z,18.76
2019-01-15T08:05:37.723Z,18.76
2019-01-15T08:06:37.797Z,18.76
2019-01-15T08:07:37.483Z,18.76
2019-01-15T08:08:37.604Z,18.76
2019-01-15T08:09:37.470Z,18.74
2019-01-15T08:10:37.843Z,18.74
2019-01-15T08:11:37.856Z,18.76
2019-01-15T08:12:37.877Z,18.77
2019-01-15T08:13:37.455Z,18.77
2019-01-15T08:14:37.598Z,18.77
2019-01-15T08:15:37.667Z,18.77
2019-01-15T08:16:37.800Z,18.78
2019-01-15T08:17:37.731Z,18.76
2019-01-15T08:18:37.672Z,18.79
2019-01-15T08:19:37.548Z,18.78
2019-01-15T08:20:37.409Z,18.78
2019-01-15T08:21:37.698Z,18.79
2019-01-15T08:22:37.947Z,18.79
2019-01-15T08:23:37.785Z,18.78
2019-01-15T08:24:37.808Z,18.79
2019-01-15T08:25:37.711Z,18.79
2019-01-15T08:26:37.444Z,18.79
2019-01-15T08:27:37.517Z,18.78
2019-01-15T08:28:37.921Z,18.79
2019-01-15T08:29:37.740Z,18.77
2019-01-15T08:30:37.473Z,18.79
2019-01-15T08:31:38.098Z,18.78
2019-01-15T08:32:37.498Z,18.81
2019-01-15T08:33:37.874Z,18.79
2019-01-15T08:34:37.810Z,18.81
2019-01-15T08:35:37.616Z,18.8
2019-01-15T08:36:37.636Z,18.81
2019-01-15T08:37:39.233Z,18.83
2019-01-15T08:38:37.878Z,18.82
2019-01-15T08:39:38.124Z,18.82
2019-01-15T08:40:37.336Z,18.82
2019-01-15T08:41:37.688Z,18.82
2019-01-15T08:42:37.491Z,18.83
2019-01-15T08:43:37.508Z,18.83
2019-01-15T08:44:37.450Z,18.8
2019-01-15T08:45:37.688Z,18.83
2019-01-15T08:46:37.686Z,18.83
2019-01-15T08:47:37.847Z,18.82
2019-01-15T08:48:37.789Z,18.84
2019-01-15T08:49:37.701Z,18.82
2019-01-15T08:50:37.894Z,18.84
2019-01-15T08:51:37.692Z,18.84
2019-01-15T08:52:39.295Z,18.84
2019-01-15T08:53:37.558Z,18.85
2019-01-15T08:54:37.897Z,18.84
2019-01-15T08:55:38.004Z,18.85
2019-01-15T08:56:37.563Z,18.87
2019-01-15T08:57:37.669Z,18.83
2019-01-15T08:58:39.322Z,18.85
2019-01-15T08:59:37.582Z,18.87
2019-01-15T09:00:38.508Z,18.84
2019-01-15T09:01:37.499Z,18.87
2019-01-15T09:02:37.584Z,18.88
2019-01-15T09:03:37.594Z,18.86
2019-01-15T09:04:38.528Z,18.87
2019-01-15T09:05:38.095Z,18.87
2019-01-15T09:06:37.742Z,18.88
2019-01-15T09:07:37.432Z,18.87
2019-01-15T09:08:37.738Z,18.86
2019-01-15T09:09:37.771Z,18.88
2019-01-15T09:10:37.742Z,18.89
2019-01-15T09:11:37.755Z,18.89
2019-01-15T09:12:37.635Z,18.88
2019-01-15T09:13:37.704Z,18.93
2019-01-15T09:14:37.701Z,18.92
2019-01-15T09:15:37.687Z,18.94
2019-01-15T09:16:37.762Z,18.94
2019-01-15T09:17:37.490Z,18.96
2019-01-15T09:18:37.955Z,18.95
2019-01-15T09:19:37.495Z,18.98
2019-01-15T09:20:37.654Z,18.99
2019-01-15T09:21:37.499Z,19.01
2019-01-15T09:22:37.409Z,19.02
2019-01-15T09:23:37.575Z,19.03
2019-01-15T09:24:37.867Z,19.05
2019-01-15T09:25:37.789Z,19.07
2019-01-15T09:26:37.966Z,19.06
2019-01-15T09:27:37.843Z,19.1
2019-01-15T09:28:37.393Z,19.13
2019-01-15T09:29:37.554Z,19.13
2019-01-15T09:30:37.561Z,19.13
2019-01-15T09:31:37.358Z,19.15
2019-01-15T09:32:37.994Z,19.17
2019-01-15T09:33:37.715Z,19.18
2019-01-15T09:34:37.528Z,19.21
2019-01-15T09:35:37.928Z,19.23
2019-01-15T09:36:38.075Z,19.26
2019-01-15T09:37:37.801Z,19.26
2019-01-15T09:38:38.202Z,19.26
2019-01-15T09:39:38.052Z,19.29
2019-01-15T09:40:38.409Z,19.3
2019-01-15T09:41:37.736Z,19.32
2019-01-15T09:42:37.834Z,19.33
2019-01-15T09:43:37.712Z,19.35
2019-01-15T09:44:37.932Z,19.35
2019-01-15T09:45:38.078Z,19.38
2019-01-15T09:46:37.703Z,19.38
2019-01-15T09:47:37.506Z,19.38
2019-01-15T09:48:37.697Z,19.4
2019-01-15T09:49:37.695Z,19.44
2019-01-15T09:50:37.691Z,19.44
2019-01-15T09:51:39.512Z,19.45
2019-01-15T09:52:37.267Z,19.45
2019-01-15T09:53:38.318Z,19.47
2019-01-15T09:54:37.573Z,19.51
2019-01-15T09:55:38.085Z,19.5
2019-01-15T09:56:37.736Z,19.52
2019-01-15T09:57:37.477Z,19.52
2019-01-15T09:58:37.509Z,19.55
2019-01-15T09:59:37.548Z,19.55
2019-01-15T10:00:37.298Z,19.57
2019-01-15T10:01:37.523Z,19.56
2019-01-15T10:02:38.573Z,19.57
2019-01-15T10:03:37.294Z,19.59
2019-01-15T10:04:37.838Z,19.6
2019-01-15T10:05:39.449Z,19.6
2019-01-15T10:06:38.045Z,19.61
2019-01-15T10:07:37.628Z,19.6
2019-01-15T10:08:39.294Z,19.62
2019-01-15T10:09:38.495Z,19.63
2019-01-15T10:10:37.568Z,19.65
2019-01-15T10:11:39.428Z,19.65
2019-01-15T10:12:37.526Z,19.66
2019-01-15T10:13:38.727Z,19.68
2019-01-15T10:14:41.890Z,19.69
2019-01-15T10:15:37.875Z,19.71
2019-01-15T10:16:37.454Z,19.71
2019-01-15T10:17:37.589Z,19.72
2019-01-15T10:18:37.809Z,19.73
2019-01-15T10:19:37.955Z,19.73
2019-01-15T10:20:37.309Z,19.75
2019-01-15T10:21:37.360Z,19.75
2019-01-15T10:22:37.839Z,19.79
2019-01-15T10:23:37.444Z,19.79
2019-01-15T10:24:37.474Z,19.8
2019-01-15T10:25:37.637Z,19.8
2019-01-15T10:26:37.549Z,19.81
2019-01-15T10:27:37.473Z,19.8
2019-01-15T10:28:37.780Z,19.82
2019-01-15T10:29:37.722Z,19.82
2019-01-15T10:30:37.698Z,19.83
2019-01-15T10:31:37.909Z,19.82
2019-01-15T10:32:37.741Z,19.83
2019-01-15T10:33:37.505Z,19.82
2019-01-15T10:34:37.892Z,19.83
2019-01-15T10:35:37.419Z,19.81
2019-01-15T10:36:37.477Z,19.77
2019-01-15T10:37:37.634Z,19.8
2019-01-15T10:38:38.537Z,19.82
2019-01-15T10:39:37.640Z,19.8
2019-01-15T10:40:37.772Z,19.76
2019-01-15T10:41:37.373Z,19.81
2019-01-15T10:42:37.707Z,19.8
2019-01-15T10:43:38.021Z,19.8
2019-01-15T10:44:37.860Z,19.79
2019-01-15T10:45:37.487Z,19.8
2019-01-15T10:46:37.705Z,19.81
2019-01-15T10:47:37.537Z,19.79
2019-01-15T10:48:37.548Z,19.79
2019-01-15T10:49:37.689Z,19.79
2019-01-15T10:50:37.388Z,19.79
2019-01-15T10:51:37.607Z,19.76
2019-01-15T10:52:37.741Z,19.79
2019-01-15T10:53:37.700Z,19.77
2019-01-15T10:54:37.815Z,19.76
2019-01-15T10:55:37.650Z,19.76
2019-01-15T10:56:37.439Z,19.77
2019-01-15T10:57:37.475Z,19.77
2019-01-15T10:58:37.843Z,19.77
2019-01-15T10:59:37.685Z,19.77
2019-01-15T11:00:37.447Z,19.81
2019-01-15T11:01:37.799Z,19.82
2019-01-15T11:02:38.241Z,19.82
2019-01-15T11:03:37.380Z,19.84
2019-01-15T11:04:37.725Z,19.85
2019-01-15T11:05:37.724Z,19.85
2019-01-15T11:06:37.473Z,19.88
2019-01-15T11:07:37.955Z,19.86
2019-01-15T11:08:37.658Z,19.89
2019-01-15T11:09:37.374Z,19.88
2019-01-15T11:10:37.355Z,19.9
2019-01-15T11:11:37.593Z,19.91
2019-01-15T11:12:37.654Z,19.91
2019-01-15T11:13:37.335Z,19.91
2019-01-15T11:14:37.422Z,19.94
2019-01-15T11:15:43.722Z,19.91
2019-01-15T11:16:37.838Z,19.92
2019-01-15T11:17:37.778Z,19.92
2019-01-15T11:18:37.266Z,19.94
2019-01-15T11:19:37.391Z,19.91
2019-01-15T11:20:37.371Z,19.91
2019-01-15T11:21:38.227Z,19.89
2019-01-15T11:22:37.728Z,19.92
2019-01-15T11:23:38.002Z,19.91
2019-01-15T11:24:38.704Z,19.89
2019-01-15T11:25:37.922Z,19.89
2019-01-15T11:26:37.643Z,19.89
2019-01-15T11:27:37.736Z,19.91
2019-01-15T11:28:39.086Z,19.9
2019-01-15T11:29:37.693Z,19.89
2019-01-15T11:30:38.067Z,19.89
2019-01-15T11:31:37.598Z,19.89
2019-01-15T11:32:38.900Z,19.89
2019-01-15T11:33:37.770Z,19.9
2019-01-15T11:34:37.727Z,19.88
2019-01-15T11:35:37.700Z,19.89
2019-01-15T11:36:38.256Z,19.89
2019-01-15T11:37:39.269Z,19.9
2019-01-15T11:38:37.890Z,19.89
2019-01-15T11:39:38.070Z,19.91
2019-01-15T11:40:37.507Z,19.89
2019-01-15T11:41:37.830Z,19.9
2019-01-15T11:42:37.491Z,19.88
2019-01-15T11:43:39.321Z,19.9
2019-01-15T11:44:37.437Z,19.9
2019-01-15T11:45:37.461Z,19.91
2019-01-15T11:46:38.046Z,19.92
2019-01-15T11:47:37.744Z,19.94
2019-01-15T11:48:37.510Z,19.92
2019-01-15T11:49:37.800Z,19.95
2019-01-15T11:50:37.410Z,19.98
2019-01-15T11:51:37.380Z,19.95
2019-01-15T11:52:37.428Z,19.97
2019-01-15T11:53:37.750Z,19.96
2019-01-15T11:54:37.972Z,19.98
2019-01-15T11:55:37.375Z,19.98
2019-01-15T11:56:38.207Z,19.99
2019-01-15T11:57:37.907Z,19.99
2019-01-15T11:58:37.503Z,20
2019-01-15T11:59:37.711Z,19.99
2019-01-15T12:00:37.744Z,19.98
2019-01-15T12:01:37.464Z,19.99
2019-01-15T12:02:37.844Z,19.99
2019-01-15T12:03:37.402Z,20.01
2019-01-15T12:04:37.467Z,19.99
2019-01-15T12:05:37.917Z,20
2019-01-15T12:06:37.248Z,19.99
2019-01-15T12:07:37.608Z,20.01
2019-01-15T12:08:37.595Z,20
2019-01-15T12:09:38.405Z,20.01
2019-01-15T12:10:37.391Z,20
2019-01-15T12:11:37.527Z,20
2019-01-15T12:12:37.383Z,20
2019-01-15T12:13:37.727Z,20.01
2019-01-15T12:14:37.234Z,20.01
2019-01-15T12:15:37.748Z,20
2019-01-15T12:16:37.674Z,20.01
2019-01-15T12:17:37.646Z,20.01
2019-01-15T12:18:37.343Z,20
2019-01-15T12:19:37.629Z,20.01
2019-01-15T12:20:39.591Z,19.99
2019-01-15T12:21:38.036Z,19.99
2019-01-15T12:22:37.741Z,20
2019-01-15T12:23:37.379Z,20
2019-01-15T12:24:37.792Z,19.99
2019-01-15T12:25:37.573Z,19.99
2019-01-15T12:26:37.543Z,19.98
2019-01-15T12:27:37.997Z,20.01
2019-01-15T12:28:38.018Z,19.99
2019-01-15T12:29:37.504Z,20
2019-01-15T12:30:37.517Z,19.98
2019-01-15T12:31:37.750Z,20
2019-01-15T12:32:37.500Z,19.99
2019-01-15T12:33:37.513Z,19.99
2019-01-15T12:34:37.441Z,19.99
2019-01-15T12:35:37.504Z,20
2019-01-15T12:36:37.727Z,19.99
2019-01-15T12:37:37.731Z,19.98
2019-01-15T12:38:37.870Z,19.99
2019-01-15T12:39:37.770Z,20.01
2019-01-15T12:40:37.293Z,19.97
2019-01-15T12:41:37.762Z,19.99
2019-01-15T12:42:37.324Z,19.99
2019-01-15T12:43:37.450Z,19.99
2019-01-15T12:44:37.381Z,20.01
2019-01-15T12:45:37.485Z,20.01
2019-01-15T12:46:37.731Z,20.02
2019-01-15T12:47:37.799Z,20.01
2019-01-15T12:48:37.872Z,20.01
2019-01-15T12:49:37.763Z,19.98
2019-01-15T12:50:39.200Z,20.01
2019-01-15T12:51:37.849Z,20
2019-01-15T12:52:37.662Z,19.98
2019-01-15T12:53:37.291Z,19.99
2019-01-15T12:54:37.851Z,20.01
2019-01-15T12:55:37.734Z,20.01
2019-01-15T12:56:37.844Z,20.02